sensor_id;sensor_type;location;lat;lon;timestamp;P1;durP1;ratioP1;P2;durP2;ratioP2
49450;SDS011;35336;48.400;10.886;2022-10-16T00:00:10;6.87;;;2.27;;
49450;SDS011;35336;48.400;10.886;2022-10-16T00:00:26;7.40;;;2.25;;
49450;SDS011;35336;48.400;10.886;2022-10-16T00:00:42;7.38;;;2.15;;
49450;SDS011;35336;48.400;10.886;2022-10-16T00:00:58;6.03;;;1.88;;
49450;SDS011;35336;48.400;10.886;2022-10-16T00:01:14;6.43;;;2.00;;
49450;SDS011;35336;48.400;10.886;2022-10-16T00:01:30;5.15;;;2.15;;
49450;SDS011;35336;48.400;10.886;2022-10-16T00:01:46;5.50;;;2.20;;
49450;SDS011;35336;48.400;10.886;2022-10-16T00:02:01;7.82;;;1.98;;
49450;SDS011;35336;48.400;10.886;2022-10-16T00:02:16;9.80;;;2.20;;
49450;SDS011;35336;48.400;10.886;2022-10-16T00:02:32;7.83;;;2.50;;
49450;SDS011;35336;48.400;10.886;2022-10-16T00:02:47;2.90;;;1.92;;
49450;SDS011;35336;48.400;10.886;2022-10-16T00:03:03;4.17;;;2.00;;
49450;SDS011;35336;48.400;10.886;2022-10-16T00:03:19;8.43;;;2.08;;
49450;SDS011;35336;48.400;10.886;2022-10-16T00:03:34;10.07;;;1.92;;
49450;SDS011;35336;48.400;10.886;2022-10-16T00:03:50;8.43;;;2.20;;
49450;SDS011;35336;48.400;10.886;2022-10-16T00:04:06;6.22;;;2.20;;
49450;SDS011;35336;48.400;10.886;2022-10-16T00:04:22;5.00;;;1.90;;
49450;SDS011;35336;48.400;10.886;2022-10-16T00:04:37;4.35;;;1.95;;
49450;SDS011;35336;48.400;10.886;2022-10-16T00:04:52;3.23;;;1.97;;
49450;SDS011;35336;48.400;10.886;2022-10-16T00:05:09;6.22;;;1.95;;
49450;SDS011;35336;48.400;10.886;2022-10-16T00:05:25;9.93;;;2.10;;
49450;SDS011;35336;48.400;10.886;2022-10-16T00:05:41;8.30;;;1.92;;
49450;SDS011;35336;48.400;10.886;2022-10-16T00:05:59;5.68;;;1.77;;
49450;SDS011;35336;48.400;10.886;2022-10-16T00:06:16;4.55;;;1.95;;
49450;SDS011;35336;48.400;10.886;2022-10-16T00:06:33;3.22;;;1.85;;
49450;SDS011;35336;48.400;10.886;2022-10-16T00:06:48;6.40;;;1.87;;
49450;SDS011;35336;48.400;10.886;2022-10-16T00:07:04;9.00;;;2.17;;
49450;SDS011;35336;48.400;10.886;2022-10-16T00:07:19;10.75;;;2.17;;
49450;SDS011;35336;48.400;10.886;2022-10-16T00:07:35;9.77;;;2.13;;
49450;SDS011;35336;48.400;10.886;2022-10-16T00:07:50;5.23;;;2.30;;
49450;SDS011;35336;48.400;10.886;2022-10-16T00:08:06;3.63;;;2.00;;
49450;SDS011;35336;48.400;10.886;2022-10-16T00:08:21;4.25;;;2.08;;
49450;SDS011;35336;48.400;10.886;2022-10-16T00:08:37;4.23;;;2.33;;
49450;SDS011;35336;48.400;10.886;2022-10-16T00:08:53;3.38;;;2.08;;
49450;SDS011;35336;48.400;10.886;2022-10-16T00:09:09;2.47;;;1.75;;
49450;SDS011;35336;48.400;10.886;2022-10-16T00:09:25;4.32;;;1.90;;
49450;SDS011;35336;48.400;10.886;2022-10-16T00:09:40;4.53;;;2.10;;
49450;SDS011;35336;48.400;10.886;2022-10-16T00:09:55;3.23;;;2.10;;
49450;SDS011;35336;48.400;10.886;2022-10-16T00:10:11;4.30;;;2.20;;
49450;SDS011;35336;48.400;10.886;2022-10-16T00:10:26;4.78;;;2.22;;
49450;SDS011;35336;48.400;10.886;2022-10-16T00:10:41;3.80;;;2.03;;
49450;SDS011;35336;48.400;10.886;2022-10-16T00:11:10;7.50;;;2.00;;
49450;SDS011;35336;48.400;10.886;2022-10-16T00:11:29;4.85;;;1.95;;
49450;SDS011;35336;48.400;10.886;2022-10-16T00:11:48;3.88;;;1.50;;
49450;SDS011;35336;48.400;10.886;2022-10-16T00:12:03;5.63;;;1.60;;
49450;SDS011;35336;48.400;10.886;2022-10-16T00:12:21;5.40;;;1.83;;
49450;SDS011;35336;48.400;10.886;2022-10-16T00:12:36;4.03;;;1.93;;
49450;SDS011;35336;48.400;10.886;2022-10-16T00:12:52;4.37;;;2.00;;
49450;SDS011;35336;48.400;10.886;2022-10-16T00:13:07;5.07;;;2.03;;
49450;SDS011;35336;48.400;10.886;2022-10-16T00:13:23;5.63;;;1.92;;
49450;SDS011;35336;48.400;10.886;2022-10-16T00:13:39;5.63;;;1.90;;
49450;SDS011;35336;48.400;10.886;2022-10-16T00:13:57;5.63;;;1.92;;
49450;SDS011;35336;48.400;10.886;2022-10-16T00:14:14;6.82;;;2.42;;
49450;SDS011;35336;48.400;10.886;2022-10-16T00:14:30;6.47;;;2.60;;
49450;SDS011;35336;48.400;10.886;2022-10-16T00:14:45;4.90;;;2.20;;
49450;SDS011;35336;48.400;10.886;2022-10-16T00:15:00;3.90;;;1.87;;
49450;SDS011;35336;48.400;10.886;2022-10-16T00:15:16;2.83;;;1.70;;
49450;SDS011;35336;48.400;10.886;2022-10-16T00:15:35;6.00;;;1.95;;
49450;SDS011;35336;48.400;10.886;2022-10-16T00:15:54;5.10;;;1.88;;
49450;SDS011;35336;48.400;10.886;2022-10-16T00:16:11;5.25;;;1.90;;
49450;SDS011;35336;48.400;10.886;2022-10-16T00:16:28;9.27;;;2.33;;
49450;SDS011;35336;48.400;10.886;2022-10-16T00:16:44;7.80;;;2.28;;
49450;SDS011;35336;48.400;10.886;2022-10-16T00:16:59;3.00;;;1.75;;
49450;SDS011;35336;48.400;10.886;2022-10-16T00:17:15;6.00;;;1.87;;
49450;SDS011;35336;48.400;10.886;2022-10-16T00:17:30;6.22;;;2.00;;
49450;SDS011;35336;48.400;10.886;2022-10-16T00:17:46;5.83;;;2.10;;
49450;SDS011;35336;48.400;10.886;2022-10-16T00:18:01;8.30;;;2.30;;
49450;SDS011;35336;48.400;10.886;2022-10-16T00:18:17;5.43;;;2.13;;
49450;SDS011;35336;48.400;10.886;2022-10-16T00:18:32;3.53;;;1.80;;
49450;SDS011;35336;48.400;10.886;2022-10-16T00:18:48;3.55;;;1.90;;
49450;SDS011;35336;48.400;10.886;2022-10-16T00:19:04;3.10;;;1.80;;
49450;SDS011;35336;48.400;10.886;2022-10-16T00:19:19;4.65;;;1.73;;
49450;SDS011;35336;48.400;10.886;2022-10-16T00:19:35;5.23;;;2.00;;
49450;SDS011;35336;48.400;10.886;2022-10-16T00:19:50;3.88;;;1.90;;
49450;SDS011;35336;48.400;10.886;2022-10-16T00:20:05;3.30;;;1.80;;
49450;SDS011;35336;48.400;10.886;2022-10-16T00:20:21;2.95;;;1.73;;
49450;SDS011;35336;48.400;10.886;2022-10-16T00:20:37;2.73;;;1.80;;
49450;SDS011;35336;48.400;10.886;2022-10-16T00:20:52;2.67;;;1.95;;
49450;SDS011;35336;48.400;10.886;2022-10-16T00:21:09;3.40;;;1.83;;
49450;SDS011;35336;48.400;10.886;2022-10-16T00:21:28;6.15;;;2.05;;
49450;SDS011;35336;48.400;10.886;2022-10-16T00:21:45;8.27;;;2.30;;
49450;SDS011;35336;48.400;10.886;2022-10-16T00:22:00;6.32;;;2.03;;
49450;SDS011;35336;48.400;10.886;2022-10-16T00:22:15;4.37;;;1.80;;
49450;SDS011;35336;48.400;10.886;2022-10-16T00:22:31;3.57;;;1.70;;
49450;SDS011;35336;48.400;10.886;2022-10-16T00:22:46;6.10;;;1.80;;
49450;SDS011;35336;48.400;10.886;2022-10-16T00:23:02;6.57;;;1.90;;
49450;SDS011;35336;48.400;10.886;2022-10-16T00:23:19;4.32;;;1.70;;
49450;SDS011;35336;48.400;10.886;2022-10-16T00:23:35;5.18;;;1.92;;
49450;SDS011;35336;48.400;10.886;2022-10-16T00:23:51;5.40;;;2.20;;
49450;SDS011;35336;48.400;10.886;2022-10-16T00:24:09;4.90;;;1.88;;
49450;SDS011;35336;48.400;10.886;2022-10-16T00:24:25;4.47;;;1.67;;
49450;SDS011;35336;48.400;10.886;2022-10-16T00:24:40;6.25;;;1.73;;
49450;SDS011;35336;48.400;10.886;2022-10-16T00:24:56;6.67;;;1.87;;
49450;SDS011;35336;48.400;10.886;2022-10-16T00:25:11;7.55;;;1.85;;
49450;SDS011;35336;48.400;10.886;2022-10-16T00:25:27;8.03;;;1.90;;
49450;SDS011;35336;48.400;10.886;2022-10-16T00:25:42;9.77;;;1.92;;
49450;SDS011;35336;48.400;10.886;2022-10-16T00:25:59;13.90;;;2.00;;
49450;SDS011;35336;48.400;10.886;2022-10-16T00:26:16;9.63;;;2.00;;
49450;SDS011;35336;48.400;10.886;2022-10-16T00:26:33;4.70;;;1.80;;
49450;SDS011;35336;48.400;10.886;2022-10-16T00:26:49;6.30;;;1.77;;
49450;SDS011;35336;48.400;10.886;2022-10-16T00:27:05;10.32;;;1.80;;
49450;SDS011;35336;48.400;10.886;2022-10-16T00:27:20;7.87;;;1.80;;
49450;SDS011;35336;48.400;10.886;2022-10-16T00:27:36;5.77;;;1.87;;
49450;SDS011;35336;48.400;10.886;2022-10-16T00:27:51;4.18;;;1.80;;
49450;SDS011;35336;48.400;10.886;2022-10-16T00:28:07;11.87;;;2.20;;
49450;SDS011;35336;48.400;10.886;2022-10-16T00:28:22;15.25;;;2.40;;
49450;SDS011;35336;48.400;10.886;2022-10-16T00:28:38;6.88;;;2.05;;
49450;SDS011;35336;48.400;10.886;2022-10-16T00:28:54;3.08;;;2.00;;
49450;SDS011;35336;48.400;10.886;2022-10-16T00:29:10;5.47;;;2.03;;
49450;SDS011;35336;48.400;10.886;2022-10-16T00:29:25;5.87;;;2.10;;
49450;SDS011;35336;48.400;10.886;2022-10-16T00:29:41;4.20;;;2.00;;
49450;SDS011;35336;48.400;10.886;2022-10-16T00:29:56;5.57;;;1.92;;
49450;SDS011;35336;48.400;10.886;2022-10-16T00:30:11;5.30;;;1.80;;
49450;SDS011;35336;48.400;10.886;2022-10-16T00:30:27;5.50;;;1.77;;
49450;SDS011;35336;48.400;10.886;2022-10-16T00:30:43;5.05;;;1.70;;
49450;SDS011;35336;48.400;10.886;2022-10-16T00:30:58;6.18;;;1.88;;
49450;SDS011;35336;48.400;10.886;2022-10-16T00:31:14;5.43;;;1.80;;
49450;SDS011;35336;48.400;10.886;2022-10-16T00:31:30;6.03;;;1.55;;
49450;SDS011;35336;48.400;10.886;2022-10-16T00:31:45;7.50;;;1.80;;
49450;SDS011;35336;48.400;10.886;2022-10-16T00:32:01;4.60;;;1.87;;
49450;SDS011;35336;48.400;10.886;2022-10-16T00:32:16;3.83;;;1.70;;
49450;SDS011;35336;48.400;10.886;2022-10-16T00:32:32;5.53;;;1.58;;
49450;SDS011;35336;48.400;10.886;2022-10-16T00:32:47;5.17;;;1.90;;
49450;SDS011;35336;48.400;10.886;2022-10-16T00:33:03;3.93;;;2.17;;
49450;SDS011;35336;48.400;10.886;2022-10-16T00:33:18;5.63;;;1.85;;
49450;SDS011;35336;48.400;10.886;2022-10-16T00:33:34;7.78;;;1.73;;
49450;SDS011;35336;48.400;10.886;2022-10-16T00:33:51;6.97;;;1.77;;
49450;SDS011;35336;48.400;10.886;2022-10-16T00:34:07;4.78;;;1.63;;
49450;SDS011;35336;48.400;10.886;2022-10-16T00:34:22;2.60;;;1.50;;
49450;SDS011;35336;48.400;10.886;2022-10-16T00:34:38;4.73;;;1.70;;
49450;SDS011;35336;48.400;10.886;2022-10-16T00:34:53;7.50;;;1.73;;
49450;SDS011;35336;48.400;10.886;2022-10-16T00:35:09;8.35;;;1.60;;
49450;SDS011;35336;48.400;10.886;2022-10-16T00:35:25;6.60;;;1.70;;
49450;SDS011;35336;48.400;10.886;2022-10-16T00:35:40;5.22;;;1.77;;
49450;SDS011;35336;48.400;10.886;2022-10-16T00:35:57;4.47;;;1.70;;
49450;SDS011;35336;48.400;10.886;2022-10-16T00:36:14;2.92;;;1.60;;
49450;SDS011;35336;48.400;10.886;2022-10-16T00:36:31;3.15;;;1.55;;
49450;SDS011;35336;48.400;10.886;2022-10-16T00:36:47;5.63;;;1.60;;
49450;SDS011;35336;48.400;10.886;2022-10-16T00:37:02;6.20;;;1.80;;
49450;SDS011;35336;48.400;10.886;2022-10-16T00:37:18;3.60;;;1.80;;
49450;SDS011;35336;48.400;10.886;2022-10-16T00:37:33;2.63;;;1.77;;
49450;SDS011;35336;48.400;10.886;2022-10-16T00:37:48;3.97;;;1.97;;
49450;SDS011;35336;48.400;10.886;2022-10-16T00:38:04;3.50;;;1.73;;
49450;SDS011;35336;48.400;10.886;2022-10-16T00:38:19;3.58;;;1.45;;
49450;SDS011;35336;48.400;10.886;2022-10-16T00:38:35;4.10;;;1.60;;
49450;SDS011;35336;48.400;10.886;2022-10-16T00:38:51;4.95;;;1.65;;
49450;SDS011;35336;48.400;10.886;2022-10-16T00:39:10;4.20;;;1.70;;
49450;SDS011;35336;48.400;10.886;2022-10-16T00:39:26;6.88;;;1.70;;
49450;SDS011;35336;48.400;10.886;2022-10-16T00:39:41;6.77;;;1.90;;
49450;SDS011;35336;48.400;10.886;2022-10-16T00:39:57;6.53;;;1.90;;
49450;SDS011;35336;48.400;10.886;2022-10-16T00:40:12;7.18;;;1.90;;
49450;SDS011;35336;48.400;10.886;2022-10-16T00:40:28;5.50;;;1.87;;
49450;SDS011;35336;48.400;10.886;2022-10-16T00:40:43;4.97;;;1.60;;
49450;SDS011;35336;48.400;10.886;2022-10-16T00:40:59;4.80;;;1.63;;
49450;SDS011;35336;48.400;10.886;2022-10-16T00:41:15;5.47;;;1.52;;
49450;SDS011;35336;48.400;10.886;2022-10-16T00:41:32;7.82;;;1.75;;
49450;SDS011;35336;48.400;10.886;2022-10-16T00:41:48;5.70;;;1.83;;
49450;SDS011;35336;48.400;10.886;2022-10-16T00:42:04;3.57;;;1.63;;
49450;SDS011;35336;48.400;10.886;2022-10-16T00:42:19;3.17;;;1.52;;
49450;SDS011;35336;48.400;10.886;2022-10-16T00:42:35;2.87;;;1.53;;
49450;SDS011;35336;48.400;10.886;2022-10-16T00:42:50;2.03;;;1.42;;
49450;SDS011;35336;48.400;10.886;2022-10-16T00:43:11;1.80;;;1.43;;
49450;SDS011;35336;48.400;10.886;2022-10-16T00:43:50;7.72;;;1.60;;
49450;SDS011;35336;48.400;10.886;2022-10-16T00:44:57;6.32;;;1.92;;
49450;SDS011;35336;48.400;10.886;2022-10-16T00:45:12;3.75;;;1.52;;
49450;SDS011;35336;48.400;10.886;2022-10-16T00:45:28;3.80;;;1.60;;
49450;SDS011;35336;48.400;10.886;2022-10-16T00:45:43;4.27;;;1.60;;
49450;SDS011;35336;48.400;10.886;2022-10-16T00:45:59;2.63;;;1.40;;
49450;SDS011;35336;48.400;10.886;2022-10-16T00:47:09;4.75;;;1.88;;
49450;SDS011;35336;48.400;10.886;2022-10-16T00:47:28;8.02;;;1.73;;
49450;SDS011;35336;48.400;10.886;2022-10-16T00:47:47;7.57;;;1.58;;
49450;SDS011;35336;48.400;10.886;2022-10-16T00:48:06;6.40;;;1.60;;
49450;SDS011;35336;48.400;10.886;2022-10-16T00:48:27;4.72;;;1.58;;
49450;SDS011;35336;48.400;10.886;2022-10-16T00:48:45;3.20;;;1.55;;
49450;SDS011;35336;48.400;10.886;2022-10-16T00:49:08;3.15;;;1.75;;
49450;SDS011;35336;48.400;10.886;2022-10-16T00:49:26;4.85;;;1.83;;
49450;SDS011;35336;48.400;10.886;2022-10-16T00:49:41;5.22;;;1.70;;
49450;SDS011;35336;48.400;10.886;2022-10-16T00:50:33;6.25;;;1.90;;
49450;SDS011;35336;48.400;10.886;2022-10-16T00:50:41;3.87;;;1.60;;
49450;SDS011;35336;48.400;10.886;2022-10-16T00:50:49;3.08;;;1.45;;
49450;SDS011;35336;48.400;10.886;2022-10-16T00:51:05;2.50;;;1.40;;
49450;SDS011;35336;48.400;10.886;2022-10-16T00:51:23;2.28;;;1.60;;
49450;SDS011;35336;48.400;10.886;2022-10-16T00:51:46;5.72;;;1.80;;
49450;SDS011;35336;48.400;10.886;2022-10-16T00:52:04;5.43;;;1.60;;
49450;SDS011;35336;48.400;10.886;2022-10-16T00:52:20;3.75;;;1.73;;
49450;SDS011;35336;48.400;10.886;2022-10-16T00:52:36;4.10;;;1.63;;
49450;SDS011;35336;48.400;10.886;2022-10-16T00:52:56;4.28;;;1.70;;
49450;SDS011;35336;48.400;10.886;2022-10-16T00:53:13;3.42;;;1.70;;
49450;SDS011;35336;48.400;10.886;2022-10-16T00:53:29;2.45;;;1.60;;
49450;SDS011;35336;48.400;10.886;2022-10-16T00:53:45;3.13;;;1.73;;
49450;SDS011;35336;48.400;10.886;2022-10-16T00:54:02;5.15;;;1.80;;
49450;SDS011;35336;48.400;10.886;2022-10-16T00:54:21;5.57;;;1.80;;
49450;SDS011;35336;48.400;10.886;2022-10-16T00:54:40;5.75;;;1.60;;
49450;SDS011;35336;48.400;10.886;2022-10-16T00:54:55;3.80;;;1.70;;
49450;SDS011;35336;48.400;10.886;2022-10-16T00:55:12;3.97;;;1.63;;
49450;SDS011;35336;48.400;10.886;2022-10-16T00:55:28;4.40;;;1.60;;
49450;SDS011;35336;48.400;10.886;2022-10-16T00:55:45;3.63;;;1.67;;
49450;SDS011;35336;48.400;10.886;2022-10-16T00:56:00;4.00;;;1.70;;
49450;SDS011;35336;48.400;10.886;2022-10-16T00:56:16;4.07;;;1.70;;
49450;SDS011;35336;48.400;10.886;2022-10-16T00:56:32;4.03;;;1.70;;
49450;SDS011;35336;48.400;10.886;2022-10-16T00:56:49;3.85;;;1.50;;
49450;SDS011;35336;48.400;10.886;2022-10-16T00:57:06;4.45;;;1.52;;
49450;SDS011;35336;48.400;10.886;2022-10-16T00:57:22;4.18;;;1.73;;
49450;SDS011;35336;48.400;10.886;2022-10-16T00:57:38;3.30;;;1.63;;
49450;SDS011;35336;48.400;10.886;2022-10-16T00:57:54;4.25;;;1.60;;
49450;SDS011;35336;48.400;10.886;2022-10-16T00:58:11;4.60;;;1.60;;
49450;SDS011;35336;48.400;10.886;2022-10-16T00:58:27;6.82;;;1.63;;
49450;SDS011;35336;48.400;10.886;2022-10-16T00:58:42;7.43;;;1.63;;
49450;SDS011;35336;48.400;10.886;2022-10-16T00:58:58;4.55;;;1.70;;
49450;SDS011;35336;48.400;10.886;2022-10-16T00:59:47;8.70;;;1.50;;
49450;SDS011;35336;48.400;10.886;2022-10-16T01:00:04;4.43;;;1.50;;
49450;SDS011;35336;48.400;10.886;2022-10-16T01:00:23;5.60;;;1.58;;
49450;SDS011;35336;48.400;10.886;2022-10-16T01:00:40;10.55;;;1.70;;
49450;SDS011;35336;48.400;10.886;2022-10-16T01:00:56;10.03;;;1.73;;
49450;SDS011;35336;48.400;10.886;2022-10-16T01:01:11;5.63;;;1.50;;
49450;SDS011;35336;48.400;10.886;2022-10-16T01:01:27;4.40;;;1.50;;
49450;SDS011;35336;48.400;10.886;2022-10-16T01:01:43;7.38;;;1.60;;
49450;SDS011;35336;48.400;10.886;2022-10-16T01:01:59;6.57;;;1.50;;
49450;SDS011;35336;48.400;10.886;2022-10-16T01:02:15;3.70;;;1.75;;
49450;SDS011;35336;48.400;10.886;2022-10-16T01:02:31;4.60;;;1.90;;
49450;SDS011;35336;48.400;10.886;2022-10-16T01:02:53;4.07;;;1.57;;
49450;SDS011;35336;48.400;10.886;2022-10-16T01:03:23;5.57;;;1.70;;
49450;SDS011;35336;48.400;10.886;2022-10-16T01:03:40;4.70;;;1.52;;
49450;SDS011;35336;48.400;10.886;2022-10-16T01:03:56;2.57;;;1.50;;
49450;SDS011;35336;48.400;10.886;2022-10-16T01:04:11;3.95;;;1.52;;
49450;SDS011;35336;48.400;10.886;2022-10-16T01:04:27;8.00;;;1.70;;
49450;SDS011;35336;48.400;10.886;2022-10-16T01:04:52;6.47;;;1.63;;
49450;SDS011;35336;48.400;10.886;2022-10-16T01:05:09;4.80;;;1.48;;
49450;SDS011;35336;48.400;10.886;2022-10-16T01:05:30;6.40;;;1.30;;
49450;SDS011;35336;48.400;10.886;2022-10-16T01:05:54;1.58;;;1.30;;
49450;SDS011;35336;48.400;10.886;2022-10-16T01:08:13;3.63;;;1.80;;
49450;SDS011;35336;48.400;10.886;2022-10-16T01:09:23;2.78;;;1.13;;
49450;SDS011;35336;48.400;10.886;2022-10-16T01:09:30;4.13;;;1.48;;
49450;SDS011;35336;48.400;10.886;2022-10-16T01:10:03;5.18;;;1.30;;
49450;SDS011;35336;48.400;10.886;2022-10-16T01:10:59;3.67;;;1.45;;
49450;SDS011;35336;48.400;10.886;2022-10-16T01:12:22;5.85;;;1.50;;
49450;SDS011;35336;48.400;10.886;2022-10-16T01:13:01;6.38;;;1.77;;
49450;SDS011;35336;48.400;10.886;2022-10-16T01:13:23;6.88;;;1.70;;
49450;SDS011;35336;48.400;10.886;2022-10-16T01:13:44;6.78;;;1.77;;
49450;SDS011;35336;48.400;10.886;2022-10-16T01:14:19;6.22;;;1.60;;
49450;SDS011;35336;48.400;10.886;2022-10-16T01:14:48;3.22;;;1.50;;
49450;SDS011;35336;48.400;10.886;2022-10-16T01:15:13;4.25;;;1.35;;
49450;SDS011;35336;48.400;10.886;2022-10-16T01:15:31;2.33;;;1.30;;
49450;SDS011;35336;48.400;10.886;2022-10-16T01:16:33;3.10;;;1.33;;
49450;SDS011;35336;48.400;10.886;2022-10-16T01:17:33;3.60;;;1.63;;
49450;SDS011;35336;48.400;10.886;2022-10-16T01:17:55;4.30;;;1.40;;
49450;SDS011;35336;48.400;10.886;2022-10-16T01:18:14;8.68;;;1.30;;
49450;SDS011;35336;48.400;10.886;2022-10-16T01:19:14;4.63;;;1.48;;
49450;SDS011;35336;48.400;10.886;2022-10-16T01:20:36;2.97;;;1.52;;
49450;SDS011;35336;48.400;10.886;2022-10-16T01:20:59;2.10;;;1.20;;
49450;SDS011;35336;48.400;10.886;2022-10-16T01:21:24;4.03;;;1.20;;
49450;SDS011;35336;48.400;10.886;2022-10-16T01:21:44;5.30;;;1.40;;
49450;SDS011;35336;48.400;10.886;2022-10-16T01:22:03;4.68;;;1.27;;
49450;SDS011;35336;48.400;10.886;2022-10-16T01:22:21;1.52;;;1.27;;
49450;SDS011;35336;48.400;10.886;2022-10-16T01:22:53;8.32;;;1.55;;
49450;SDS011;35336;48.400;10.886;2022-10-16T01:23:23;9.13;;;1.45;;
49450;SDS011;35336;48.400;10.886;2022-10-16T01:24:40;2.95;;;1.40;;
49450;SDS011;35336;48.400;10.886;2022-10-16T01:24:58;2.88;;;1.17;;
49450;SDS011;35336;48.400;10.886;2022-10-16T01:25:19;2.30;;;1.00;;
49450;SDS011;35336;48.400;10.886;2022-10-16T01:26:23;4.53;;;1.55;;
49450;SDS011;35336;48.400;10.886;2022-10-16T01:27:27;6.10;;;1.40;;
49450;SDS011;35336;48.400;10.886;2022-10-16T01:27:45;3.50;;;1.48;;
49450;SDS011;35336;48.400;10.886;2022-10-16T01:28:03;4.25;;;1.60;;
49450;SDS011;35336;48.400;10.886;2022-10-16T01:28:22;6.15;;;1.35;;
49450;SDS011;35336;48.400;10.886;2022-10-16T01:28:48;3.88;;;1.48;;
49450;SDS011;35336;48.400;10.886;2022-10-16T01:29:53;3.83;;;1.23;;
49450;SDS011;35336;48.400;10.886;2022-10-16T01:30:18;2.40;;;1.10;;
49450;SDS011;35336;48.400;10.886;2022-10-16T01:30:39;3.50;;;1.00;;
49450;SDS011;35336;48.400;10.886;2022-10-16T01:30:58;5.45;;;1.10;;
49450;SDS011;35336;48.400;10.886;2022-10-16T01:31:17;9.80;;;1.40;;
49450;SDS011;35336;48.400;10.886;2022-10-16T01:31:37;10.82;;;1.35;;
49450;SDS011;35336;48.400;10.886;2022-10-16T01:32:05;4.13;;;1.30;;
49450;SDS011;35336;48.400;10.886;2022-10-16T01:33:46;5.73;;;1.20;;
49450;SDS011;35336;48.400;10.886;2022-10-16T01:34:10;2.72;;;1.00;;
49450;SDS011;35336;48.400;10.886;2022-10-16T01:34:32;2.22;;;1.20;;
49450;SDS011;35336;48.400;10.886;2022-10-16T01:34:58;1.80;;;1.38;;
49450;SDS011;35336;48.400;10.886;2022-10-16T01:35:41;6.65;;;1.15;;
49450;SDS011;35336;48.400;10.886;2022-10-16T01:36:12;2.80;;;1.40;;
49450;SDS011;35336;48.400;10.886;2022-10-16T01:36:34;5.40;;;1.27;;
49450;SDS011;35336;48.400;10.886;2022-10-16T01:36:59;3.10;;;1.20;;
49450;SDS011;35336;48.400;10.886;2022-10-16T01:38:28;3.13;;;1.30;;
49450;SDS011;35336;48.400;10.886;2022-10-16T01:38:48;5.25;;;1.48;;
49450;SDS011;35336;48.400;10.886;2022-10-16T01:39:08;4.65;;;1.20;;
49450;SDS011;35336;48.400;10.886;2022-10-16T01:39:31;4.43;;;1.45;;
49450;SDS011;35336;48.400;10.886;2022-10-16T01:39:50;2.45;;;1.20;;
49450;SDS011;35336;48.400;10.886;2022-10-16T01:40:11;5.82;;;1.30;;
49450;SDS011;35336;48.400;10.886;2022-10-16T01:40:28;5.65;;;1.35;;
49450;SDS011;35336;48.400;10.886;2022-10-16T01:40:49;4.55;;;1.10;;
49450;SDS011;35336;48.400;10.886;2022-10-16T01:41:21;2.45;;;1.10;;
49450;SDS011;35336;48.400;10.886;2022-10-16T01:41:43;3.65;;;1.20;;
49450;SDS011;35336;48.400;10.886;2022-10-16T01:43:00;5.70;;;1.23;;
49450;SDS011;35336;48.400;10.886;2022-10-16T01:43:21;3.65;;;1.20;;
49450;SDS011;35336;48.400;10.886;2022-10-16T01:43:41;2.15;;;1.30;;
49450;SDS011;35336;48.400;10.886;2022-10-16T01:44:02;3.33;;;1.20;;
49450;SDS011;35336;48.400;10.886;2022-10-16T01:44:35;3.88;;;1.55;;
49450;SDS011;35336;48.400;10.886;2022-10-16T01:44:52;3.42;;;1.50;;
49450;SDS011;35336;48.400;10.886;2022-10-16T01:45:08;7.70;;;1.55;;
49450;SDS011;35336;48.400;10.886;2022-10-16T01:45:28;5.53;;;1.23;;
49450;SDS011;35336;48.400;10.886;2022-10-16T01:45:46;5.22;;;1.02;;
49450;SDS011;35336;48.400;10.886;2022-10-16T01:46:02;5.55;;;1.50;;
49450;SDS011;35336;48.400;10.886;2022-10-16T01:46:20;5.53;;;1.83;;
49450;SDS011;35336;48.400;10.886;2022-10-16T01:46:36;4.40;;;1.13;;
49450;SDS011;35336;48.400;10.886;2022-10-16T01:46:54;9.88;;;1.40;;
49450;SDS011;35336;48.400;10.886;2022-10-16T01:47:10;11.05;;;1.40;;
49450;SDS011;35336;48.400;10.886;2022-10-16T01:47:29;6.70;;;1.35;;
49450;SDS011;35336;48.400;10.886;2022-10-16T01:47:47;5.60;;;1.50;;
49450;SDS011;35336;48.400;10.886;2022-10-16T01:48:04;4.63;;;1.40;;
49450;SDS011;35336;48.400;10.886;2022-10-16T01:48:22;3.47;;;1.20;;
49450;SDS011;35336;48.400;10.886;2022-10-16T01:48:39;2.67;;;1.20;;
49450;SDS011;35336;48.400;10.886;2022-10-16T01:48:55;4.88;;;1.27;;
49450;SDS011;35336;48.400;10.886;2022-10-16T01:49:12;6.07;;;1.33;;
49450;SDS011;35336;48.400;10.886;2022-10-16T01:49:33;11.52;;;1.58;;
49450;SDS011;35336;48.400;10.886;2022-10-16T01:49:50;9.68;;;1.40;;
49450;SDS011;35336;48.400;10.886;2022-10-16T01:50:08;3.30;;;1.33;;
49450;SDS011;35336;48.400;10.886;2022-10-16T01:50:24;2.75;;;1.08;;
49450;SDS011;35336;48.400;10.886;2022-10-16T01:50:42;3.20;;;1.00;;
49450;SDS011;35336;48.400;10.886;2022-10-16T01:51:01;6.47;;;1.30;;
49450;SDS011;35336;48.400;10.886;2022-10-16T01:51:20;3.20;;;1.40;;
49450;SDS011;35336;48.400;10.886;2022-10-16T01:51:38;5.75;;;1.25;;
49450;SDS011;35336;48.400;10.886;2022-10-16T01:51:55;7.53;;;1.00;;
49450;SDS011;35336;48.400;10.886;2022-10-16T01:52:15;8.27;;;1.20;;
49450;SDS011;35336;48.400;10.886;2022-10-16T01:52:35;3.13;;;1.10;;
49450;SDS011;35336;48.400;10.886;2022-10-16T01:52:54;1.90;;;1.05;;
49450;SDS011;35336;48.400;10.886;2022-10-16T01:53:12;3.95;;;1.48;;
49450;SDS011;35336;48.400;10.886;2022-10-16T01:53:29;6.90;;;1.50;;
49450;SDS011;35336;48.400;10.886;2022-10-16T01:53:54;6.68;;;1.30;;
49450;SDS011;35336;48.400;10.886;2022-10-16T01:54:12;5.78;;;1.10;;
49450;SDS011;35336;48.400;10.886;2022-10-16T01:54:30;5.65;;;1.10;;
49450;SDS011;35336;48.400;10.886;2022-10-16T01:54:47;4.53;;;1.20;;
49450;SDS011;35336;48.400;10.886;2022-10-16T01:55:07;3.22;;;1.20;;
49450;SDS011;35336;48.400;10.886;2022-10-16T01:55:28;5.53;;;1.20;;
49450;SDS011;35336;48.400;10.886;2022-10-16T01:55:46;7.35;;;1.20;;
49450;SDS011;35336;48.400;10.886;2022-10-16T01:56:05;6.75;;;1.20;;
49450;SDS011;35336;48.400;10.886;2022-10-16T01:56:24;10.00;;;1.33;;
49450;SDS011;35336;48.400;10.886;2022-10-16T01:56:41;8.07;;;1.27;;
49450;SDS011;35336;48.400;10.886;2022-10-16T01:56:57;6.18;;;1.20;;
49450;SDS011;35336;48.400;10.886;2022-10-16T01:57:14;5.22;;;1.38;;
49450;SDS011;35336;48.400;10.886;2022-10-16T01:57:32;2.90;;;1.17;;
49450;SDS011;35336;48.400;10.886;2022-10-16T01:57:52;2.75;;;1.20;;
49450;SDS011;35336;48.400;10.886;2022-10-16T01:58:09;3.47;;;1.40;;
49450;SDS011;35336;48.400;10.886;2022-10-16T01:58:26;6.32;;;1.40;;
49450;SDS011;35336;48.400;10.886;2022-10-16T01:58:47;8.20;;;1.20;;
49450;SDS011;35336;48.400;10.886;2022-10-16T01:59:16;8.68;;;1.30;;
49450;SDS011;35336;48.400;10.886;2022-10-16T01:59:34;3.75;;;1.00;;
49450;SDS011;35336;48.400;10.886;2022-10-16T01:59:54;2.95;;;1.20;;
49450;SDS011;35336;48.400;10.886;2022-10-16T02:00:13;4.32;;;1.20;;
49450;SDS011;35336;48.400;10.886;2022-10-16T02:00:31;3.95;;;1.10;;
49450;SDS011;35336;48.400;10.886;2022-10-16T02:00:46;8.80;;;1.30;;
49450;SDS011;35336;48.400;10.886;2022-10-16T02:01:03;11.48;;;1.40;;
49450;SDS011;35336;48.400;10.886;2022-10-16T02:01:22;5.15;;;1.10;;
49450;SDS011;35336;48.400;10.886;2022-10-16T02:01:42;2.88;;;1.40;;
49450;SDS011;35336;48.400;10.886;2022-10-16T02:02:04;5.38;;;1.50;;
49450;SDS011;35336;48.400;10.886;2022-10-16T02:02:24;4.82;;;1.30;;
49450;SDS011;35336;48.400;10.886;2022-10-16T02:02:43;3.15;;;1.30;;
49450;SDS011;35336;48.400;10.886;2022-10-16T02:03:02;6.05;;;1.40;;
49450;SDS011;35336;48.400;10.886;2022-10-16T02:03:20;4.82;;;1.08;;